Date,TemperatureHighF,TemperatureAvgF,TemperatureLowF,DewpointHighF,DewpointAvgF,DewpointLowF,HumidityHigh,HumidityAvg,HumidityLow,PressureMaxIn,PressureMinIn,WindSpeedMaxMPH,WindSpeedAvgMPH,GustSpeedMaxMPH,PrecipitationSumIn
2013-3-1,66,61,57,54,50,45,79,68,50,29.99,29.91,3,0,6,0.00
2013-3-2,67,58,50,48,41,37,74,56,36,30.04,29.96,7,1,13,0.00
2013-3-3,63,53,46,41,39,35,82,61,42,30.16,29.98,5,1,11,0.00
2013-3-4,58,48,43,46,39,33,87,70,43,30.23,30.13,3,0,8,0.00
2013-3-5,76,62,45,60,53,44,96,73,53,30.19,30.09,6,1,9,0.00
2013-3-6,77,64,52,63,50,25,93,64,22,30.11,29.96,8,1,10,0.00
2013-3-7,72,58,46,56,47,35,92,68,43,30.19,30.09,4,0,9,0.00
2013-3-8,75,62,50,54,51,46,94,69,44,30.22,30.12,3,0,4,0.00
2013-3-9,78,66,54,58,54,50,90,67,48,30.21,30.11,3,0,8,0.00
2013-3-10,77,71,67,60,57,52,73,61,50,30.17,30.09,7,2,9,0.00
2013-3-11,78,72,68,64,60,57,76,68,56,30.13,29.97,8,2,11,0.00
2013-3-12,80,74,69,71,66,62,86,76,67,30.01,29.91,6,1,10,0.00
2013-3-13,75,65,56,65,56,51,93,75,54,30.14,29.99,4,0,6,0.00
2013-3-14,72,60,52,52,49,43,93,68,42,30.22,30.11,6,1,7,0.00
2013-3-15,75,62,50,56,51,45,89,69,45,30.26,30.17,3,0,5,0.00
2013-3-16,76,64,50,58,53,46,97,70,36,30.21,30.10,6,1,9,0.00
2013-3-17,78,66,54,62,57,53,94,75,53,30.16,30.05,5,1,10,0.00
2013-3-18,81,73,66,70,66,61,94,79,66,30.08,29.97,9,1,10,0.30
2013-3-19,80,71,65,70,66,63,95,86,67,30.02,29.84,1,0,10,0.00
2013-3-20,81,71,60,71,64,58,98,81,51,29.98,29.82,4,0,13,0.02
2013-3-21,75,65,53,62,54,46,94,71,39,29.96,29.84,4,0,8,0.00
2013-3-22,77,66,50,69,58,49,97,77,54,30.02,29.91,7,1,9,0.00
2013-3-23,86,77,70,75,72,69,96,85,68,29.98,29.80,9,1,10,0.00
2013-3-24,91,79,71,74,71,66,96,79,52,29.89,29.67,12,2,17,0.75
2013-3-25,83,73,63,72,58,34,97,65,28,30.00,29.74,4,0,7,0.01
2013-3-26,70,60,51,43,36,30,65,43,27,30.22,30.00,5,1,10,0.00
2013-3-27,70,56,45,48,41,31,75,58,44,30.27,30.18,4,1,7,0.00
2013-3-28,74,61,48,53,46,40,85,61,38,30.28,30.19,4,0,7,0.00
2013-3-29,79,66,53,56,50,44,80,59,38,30.30,30.22,3,0,7,0.00
2013-3-30,76,69,60,57,52,49,75,57,42,30.28,30.18,5,1,8,0.00
2013-3-31,82,72,57,67,62,54,90,71,59,30.20,30.06,8,2,11,0.00